Terminal Aerodrome Forecast
Issued by NWS

Home | Current Version | Previous Version | Text Only | Print | Product List | Glossary On
Versions: 1 2 3 4 5 6 7 8 9 10 11 12 13 14 15 16 17
000
FTUS45 KVEF 291100
TAFBIH
TAF
KBIH 291138Z 2912/3012 VRB05KT P6SM VCSH OVC100
      TEMPO 2912/2916 -SHRA
     FM291600 34007KT P6SM BKN100
     FM292200 34012KT P6SM VCSH BKN100
     FM300400 35010KT P6SM BKN120=

USA.gov is the U.S. government's official web portal to all federal, state and local government web resources and services.